createdAt,value
2018-09-30T00:01:33.692Z,31.10
2018-09-30T00:04:01.902Z,34.07
2018-09-30T00:06:30.108Z,30.20
2018-09-30T00:08:59.161Z,32.07
2018-09-30T00:11:27.412Z,30.23
2018-09-30T00:13:55.689Z,30.10
2018-09-30T00:16:23.911Z,30.90
2018-09-30T00:18:52.124Z,30.33
2018-09-30T00:21:20.491Z,30.77
2018-09-30T00:23:53.961Z,30.47
2018-09-30T00:26:27.802Z,30.30
2018-09-30T00:28:56.047Z,31.93
2018-09-30T00:31:24.273Z,32.53
2018-09-30T00:33:57.962Z,32.67
2018-09-30T00:36:26.283Z,32.93
2018-09-30T00:38:54.544Z,31.57
2018-09-30T00:41:22.756Z,32.10
2018-09-30T00:43:50.952Z,29.50
2018-09-30T00:46:28.729Z,30.00
2018-09-30T00:48:56.966Z,30.13
2018-09-30T00:51:25.229Z,40.07
2018-09-30T00:53:57.125Z,37.83
2018-09-30T00:56:25.437Z,40.07
2018-09-30T00:58:53.650Z,42.87
2018-09-30T01:01:21.899Z,43.67
2018-09-30T01:04:05.770Z,37.77
2018-09-30T01:06:36.365Z,35.47
2018-09-30T01:09:11.595Z,44.60
2018-09-30T01:11:44.303Z,42.57
2018-09-30T01:14:15.985Z,41.27
2018-09-30T01:16:48.531Z,40.10
2018-09-30T01:19:17.173Z,38.77
2018-09-30T01:21:51.982Z,36.93
2018-09-30T01:24:25.483Z,36.63
2018-09-30T01:26:58.415Z,34.30
2018-09-30T01:29:30.758Z,34.77
2018-09-30T01:32:01.252Z,32.07
2018-09-30T01:34:31.690Z,32.27
2018-09-30T01:37:00.912Z,32.63
2018-09-30T01:39:29.248Z,31.60
2018-09-30T01:42:02.793Z,31.13
2018-09-30T01:44:31.004Z,30.27
2018-09-30T01:46:59.282Z,29.37
2018-09-30T01:49:27.509Z,30.43
2018-09-30T01:52:05.205Z,29.30
2018-09-30T01:54:33.445Z,28.97
2018-09-30T01:57:01.640Z,27.97
2018-09-30T01:59:29.861Z,28.40
2018-09-30T02:01:58.067Z,28.70
2018-09-30T02:04:26.312Z,29.00
2018-09-30T02:06:54.523Z,29.13
2018-09-30T02:09:22.731Z,31.60
2018-09-30T02:11:50.938Z,30.23
2018-09-30T02:14:19.141Z,29.50
2018-09-30T02:16:47.398Z,30.10
2018-09-30T02:19:17.722Z,28.57
2018-09-30T02:21:45.966Z,27.47
2018-09-30T02:24:14.173Z,27.50
2018-09-30T02:26:42.400Z,27.90
2018-09-30T02:29:10.648Z,28.90
2018-09-30T02:31:38.847Z,30.50
2018-09-30T02:34:07.079Z,33.27
2018-09-30T02:36:35.302Z,32.00
2018-09-30T02:39:04.122Z,32.13
2018-09-30T02:41:32.376Z,32.00
2018-09-30T02:44:00.570Z,30.13
2018-09-30T02:46:28.919Z,28.43
2018-09-30T02:48:57.138Z,27.00
2018-09-30T02:51:27.349Z,28.37
2018-09-30T02:53:57.586Z,29.87
2018-09-30T02:56:25.831Z,30.40
2018-09-30T02:58:54.054Z,30.40
2018-09-30T03:01:26.296Z,30.23
2018-09-30T03:03:54.491Z,29.87
2018-09-30T03:06:28.101Z,26.97
2018-09-30T03:09:01.689Z,27.10
2018-09-30T03:11:29.925Z,26.13
2018-09-30T03:13:58.143Z,25.37
2018-09-30T03:16:26.385Z,25.63
2018-09-30T03:18:54.613Z,24.40
2018-09-30T03:21:22.821Z,23.40
2018-09-30T03:23:51.094Z,23.57
2018-09-30T03:26:19.322Z,26.20
2018-09-30T03:28:47.508Z,24.63
2018-09-30T03:31:15.721Z,24.10
2018-09-30T03:33:43.901Z,24.73
2018-09-30T03:36:12.200Z,24.23
2018-09-30T03:38:40.429Z,23.63
2018-09-30T03:41:08.700Z,23.63
2018-09-30T03:43:36.921Z,25.53
2018-09-30T03:46:05.157Z,24.30
2018-09-30T03:48:33.425Z,24.47
2018-09-30T03:51:01.686Z,25.37
2018-09-30T03:53:29.912Z,26.53
2018-09-30T03:55:58.125Z,25.50
2018-09-30T03:58:26.367Z,25.87
2018-09-30T04:00:54.636Z,27.47
2018-09-30T04:03:22.848Z,25.27
2018-09-30T04:05:53.074Z,27.00
2018-09-30T04:08:21.304Z,26.93
2018-09-30T04:10:49.506Z,27.67
2018-09-30T04:13:17.722Z,29.40
2018-09-30T04:15:45.910Z,31.43
2018-09-30T04:18:14.099Z,32.80
2018-09-30T04:20:42.308Z,34.93
2018-09-30T04:23:10.526Z,37.00
2018-09-30T04:25:38.734Z,39.33
2018-09-30T04:28:06.934Z,37.97
2018-09-30T04:30:35.177Z,38.10
2018-09-30T04:33:03.408Z,37.53
2018-09-30T04:35:31.657Z,39.53
2018-09-30T04:37:59.881Z,39.50
2018-09-30T04:40:28.072Z,37.57
2018-09-30T04:42:56.382Z,39.13
2018-09-30T04:45:24.596Z,38.57
2018-09-30T04:47:52.804Z,36.50
2018-09-30T04:50:20.998Z,38.23
2018-09-30T04:52:49.215Z,36.77
2018-09-30T04:55:17.719Z,36.40
2018-09-30T04:57:46.041Z,34.63
2018-09-30T05:00:14.257Z,32.13
2018-09-30T05:02:42.464Z,32.90
2018-09-30T05:05:10.656Z,33.20
2018-09-30T05:07:38.923Z,31.73
2018-09-30T05:10:07.139Z,30.80
2018-09-30T05:12:35.338Z,31.57
2018-09-30T05:15:03.583Z,31.07
2018-09-30T05:17:31.806Z,30.40
2018-09-30T05:20:00.036Z,30.23
2018-09-30T05:22:28.265Z,31.23
2018-09-30T05:24:56.469Z,31.60
2018-09-30T05:27:24.682Z,32.03
2018-09-30T05:29:52.955Z,30.33
2018-09-30T05:32:21.180Z,29.23
2018-09-30T05:34:49.364Z,26.63
2018-09-30T05:37:17.640Z,25.83
2018-09-30T05:39:45.817Z,24.80
2018-09-30T05:42:14.012Z,23.87
2018-09-30T05:44:42.248Z,24.17
2018-09-30T05:47:10.450Z,23.13
2018-09-30T05:49:38.702Z,24.17
2018-09-30T05:52:06.922Z,23.03
2018-09-30T05:54:35.124Z,22.97
2018-09-30T05:57:03.373Z,23.80
2018-09-30T05:59:31.585Z,21.07
2018-09-30T06:02:01.802Z,20.83
2018-09-30T06:04:30.033Z,19.60
2018-09-30T06:06:58.246Z,19.27
2018-09-30T06:09:26.584Z,19.47
2018-09-30T06:11:54.765Z,18.87
2018-09-30T06:14:23.060Z,20.03
2018-09-30T06:16:51.225Z,19.77
2018-09-30T06:19:19.472Z,19.27
2018-09-30T06:21:47.745Z,19.47
2018-09-30T06:24:16.113Z,19.00
2018-09-30T06:26:44.292Z,17.60
2018-09-30T06:29:12.514Z,18.80
2018-09-30T06:31:40.769Z,18.27
2018-09-30T06:34:09.050Z,17.77
2018-09-30T06:36:37.253Z,20.20
2018-09-30T06:39:07.046Z,21.10
2018-09-30T06:41:35.281Z,20.83
2018-09-30T06:44:03.558Z,20.57
2018-09-30T06:46:31.850Z,18.23
2018-09-30T06:49:00.060Z,16.93
2018-09-30T06:51:28.286Z,18.80
2018-09-30T06:53:56.526Z,17.97
2018-09-30T06:56:24.780Z,18.27
2018-09-30T06:58:53.061Z,18.73
2018-09-30T07:01:21.331Z,18.73
2018-09-30T07:03:49.549Z,20.37
2018-09-30T07:06:17.739Z,20.83
2018-09-30T07:08:45.997Z,20.00
2018-09-30T07:11:14.245Z,21.90
2018-09-30T07:13:42.440Z,21.90
2018-09-30T07:16:10.660Z,20.57
2018-09-30T07:18:38.895Z,18.00
2018-09-30T07:21:07.137Z,19.57
2018-09-30T07:23:35.441Z,19.20
2018-09-30T07:26:03.694Z,21.47
2018-09-30T07:28:31.936Z,20.60
2018-09-30T07:31:04.206Z,24.87
2018-09-30T07:33:32.446Z,84.80
2018-09-30T07:36:00.755Z,233.67
2018-09-30T07:38:28.966Z,31.40
2018-09-30T07:41:03.898Z,33.50
2018-09-30T07:43:32.142Z,21.03
2018-09-30T07:46:00.362Z,91.93
2018-09-30T07:48:28.567Z,15.40
2018-09-30T07:50:56.758Z,16.40
2018-09-30T07:53:24.972Z,14.97
2018-09-30T07:55:53.121Z,13.57
2018-09-30T07:58:21.277Z,16.90
2018-09-30T08:00:49.655Z,14.60
2018-09-30T08:03:17.824Z,14.50
2018-09-30T08:05:46.049Z,22.83
2018-09-30T08:08:14.213Z,18.00
2018-09-30T08:10:42.386Z,15.43
2018-09-30T08:13:10.599Z,14.40
2018-09-30T08:15:38.748Z,13.20
2018-09-30T08:18:06.953Z,13.13
2018-09-30T08:20:35.112Z,12.53
2018-09-30T08:23:03.264Z,12.77
2018-09-30T08:25:31.434Z,14.03
2018-09-30T08:27:59.606Z,13.83
2018-09-30T08:30:27.806Z,13.33
2018-09-30T08:32:55.964Z,11.83
2018-09-30T08:35:24.113Z,13.33
2018-09-30T08:37:57.716Z,13.03
2018-09-30T08:40:31.437Z,12.93
2018-09-30T08:42:59.784Z,12.50
2018-09-30T08:45:28.056Z,12.73
2018-09-30T08:47:56.499Z,11.67
2018-09-30T08:50:24.641Z,9.90
2018-09-30T08:52:52.802Z,10.63
2018-09-30T08:55:20.993Z,12.10
2018-09-30T08:57:49.652Z,13.73
2018-09-30T09:00:17.849Z,17.83
2018-09-30T09:02:46.017Z,10.20
2018-09-30T09:05:14.164Z,11.33
2018-09-30T09:07:42.388Z,10.10
2018-09-30T09:10:10.722Z,8.30
2018-09-30T09:12:38.896Z,18.63
2018-09-30T09:15:07.146Z,13.70
2018-09-30T09:17:35.309Z,9.13
2018-09-30T09:20:03.673Z,20.23
2018-09-30T09:22:31.842Z,8.77
2018-09-30T09:25:00.149Z,11.00
2018-09-30T09:27:28.302Z,11.13
2018-09-30T09:29:56.488Z,9.17
2018-09-30T09:32:24.689Z,13.37
2018-09-30T09:34:52.887Z,6.60
2018-09-30T09:37:21.052Z,9.70
2018-09-30T09:39:49.192Z,6.90
2018-09-30T09:42:17.348Z,7.47
2018-09-30T09:44:46.005Z,6.50
2018-09-30T09:47:14.780Z,6.10
2018-09-30T09:49:42.945Z,6.30
2018-09-30T09:52:11.096Z,5.30
2018-09-30T09:54:39.405Z,5.07
2018-09-30T09:57:07.588Z,4.60
2018-09-30T09:59:35.729Z,4.80
2018-09-30T10:02:03.909Z,4.27
2018-09-30T10:04:32.062Z,4.67
2018-09-30T10:07:00.204Z,5.17
2018-09-30T10:09:28.448Z,4.40
2018-09-30T10:11:56.706Z,3.97
2018-09-30T10:14:24.982Z,4.03
2018-09-30T10:16:53.213Z,5.23
2018-09-30T10:19:22.380Z,3.70
2018-09-30T10:21:50.668Z,3.50
2018-09-30T10:24:18.933Z,3.90
2018-09-30T10:26:47.153Z,4.47
2018-09-30T10:29:15.442Z,4.60
2018-09-30T10:31:43.732Z,4.03
2018-09-30T10:34:12.034Z,2.83
2018-09-30T10:36:40.319Z,2.83
2018-09-30T10:39:09.685Z,6.67
2018-09-30T10:41:37.836Z,15.57
2018-09-30T10:44:06.108Z,4.07
2018-09-30T10:46:34.517Z,8.40
2018-09-30T10:49:02.837Z,5.07
2018-09-30T10:51:31.048Z,12.50
2018-09-30T10:53:59.528Z,6.90
2018-09-30T10:56:27.780Z,2.97
2018-09-30T10:58:56.247Z,5.50
2018-09-30T11:01:24.611Z,6.43
2018-09-30T11:03:52.854Z,4.00
2018-09-30T11:06:21.100Z,3.30
2018-09-30T11:08:49.339Z,6.03
2018-09-30T11:11:17.609Z,3.10
2018-09-30T11:13:45.817Z,2.87
2018-09-30T11:16:14.162Z,3.67
2018-09-30T11:18:42.309Z,3.97
2018-09-30T11:21:10.543Z,2.63
2018-09-30T11:23:38.794Z,2.70
2018-09-30T11:26:07.174Z,3.50
2018-09-30T11:28:35.419Z,3.00
2018-09-30T11:31:03.796Z,3.40
2018-09-30T11:33:32.241Z,3.23
2018-09-30T11:36:00.847Z,2.83
2018-09-30T11:38:29.215Z,2.83
2018-09-30T11:40:57.541Z,2.60
2018-09-30T11:43:25.817Z,3.03
2018-09-30T11:45:54.056Z,3.13
2018-09-30T11:48:22.518Z,2.63
2018-09-30T11:50:51.577Z,2.83
2018-09-30T11:53:20.781Z,2.80
2018-09-30T11:55:49.014Z,3.00
2018-09-30T11:58:17.287Z,2.70
2018-09-30T12:00:45.618Z,2.70
2018-09-30T12:03:14.732Z,2.57
2018-09-30T12:05:43.901Z,3.40
2018-09-30T12:08:12.199Z,3.30
2018-09-30T12:10:40.639Z,3.00
2018-09-30T12:13:08.999Z,2.50
2018-09-30T12:15:37.433Z,3.10
2018-09-30T12:18:05.828Z,2.60
2018-09-30T12:20:35.754Z,2.50
2018-09-30T12:23:04.054Z,2.33
2018-09-30T12:25:32.941Z,2.73
2018-09-30T12:28:01.322Z,2.60
2018-09-30T12:30:29.591Z,2.57
2018-09-30T12:32:57.864Z,2.70
2018-09-30T12:35:26.564Z,2.77
2018-09-30T12:37:54.943Z,3.20
2018-09-30T12:40:23.247Z,5.90
2018-09-30T12:42:52.403Z,2.77
2018-09-30T12:45:20.607Z,2.60
2018-09-30T12:47:49.066Z,2.60
2018-09-30T12:50:17.304Z,2.58
2018-09-30T12:52:45.514Z,3.20
2018-09-30T12:55:13.755Z,2.17
2018-09-30T12:57:41.961Z,3.00
2018-09-30T13:00:10.737Z,2.70
2018-09-30T13:02:38.987Z,2.50
2018-09-30T13:05:07.598Z,2.90
2018-09-30T13:07:35.799Z,2.70
2018-09-30T13:10:04.063Z,3.10
2018-09-30T13:12:32.292Z,2.63
2018-09-30T13:15:00.588Z,2.60
2018-09-30T13:17:28.824Z,2.77
2018-09-30T13:19:57.062Z,3.03
2018-09-30T13:22:25.273Z,3.00
2018-09-30T13:24:53.479Z,2.70
2018-09-30T13:27:21.748Z,2.93
2018-09-30T13:29:49.973Z,2.87
2018-09-30T13:32:18.179Z,2.20
2018-09-30T13:34:46.393Z,2.53
2018-09-30T13:37:14.633Z,2.80
2018-09-30T13:39:42.905Z,2.20
2018-09-30T13:42:11.109Z,2.87
2018-09-30T13:44:39.336Z,2.50
2018-09-30T13:47:07.546Z,2.50
2018-09-30T13:49:35.773Z,2.47
2018-09-30T13:52:04.073Z,2.57
2018-09-30T13:54:32.276Z,2.30
2018-09-30T13:57:00.465Z,2.60
2018-09-30T13:59:28.714Z,2.40
2018-09-30T14:01:56.933Z,3.00
2018-09-30T14:04:25.258Z,4.80
2018-09-30T14:06:53.513Z,6.10
2018-09-30T14:09:21.694Z,2.70
2018-09-30T14:11:49.917Z,2.63
2018-09-30T14:14:18.110Z,2.10
2018-09-30T14:16:46.340Z,2.43
2018-09-30T14:19:14.579Z,2.40
2018-09-30T14:21:42.825Z,2.30
2018-09-30T14:24:11.028Z,2.13
2018-09-30T14:26:39.250Z,2.40
2018-09-30T14:29:07.514Z,3.00
2018-09-30T14:31:35.726Z,2.50
2018-09-30T14:34:04.003Z,2.53
2018-09-30T14:36:32.201Z,2.50
2018-09-30T14:39:00.423Z,2.97
2018-09-30T14:41:28.680Z,2.60
2018-09-30T14:43:56.870Z,2.40
2018-09-30T14:46:25.102Z,2.57
2018-09-30T14:48:53.323Z,2.17
2018-09-30T14:51:21.513Z,2.67
2018-09-30T14:53:49.800Z,3.30
2018-09-30T14:56:17.977Z,2.77
2018-09-30T14:58:46.213Z,2.67
2018-09-30T15:01:14.459Z,2.90
2018-09-30T15:03:42.667Z,2.80
2018-09-30T15:06:10.981Z,2.90
2018-09-30T15:08:39.109Z,3.10
2018-09-30T15:11:07.324Z,3.30
2018-09-30T15:13:35.544Z,2.47
2018-09-30T15:16:03.759Z,3.40
2018-09-30T15:18:32.028Z,6.33
2018-09-30T15:21:00.225Z,4.40
2018-09-30T15:23:28.423Z,3.10
2018-09-30T15:25:56.632Z,3.57
2018-09-30T15:28:24.875Z,5.90
2018-09-30T15:30:55.097Z,11.90
2018-09-30T15:33:23.298Z,8.97
2018-09-30T15:35:51.493Z,5.90
2018-09-30T15:38:19.704Z,7.33
2018-09-30T15:40:47.892Z,8.80
2018-09-30T15:43:16.090Z,7.90
2018-09-30T15:45:44.311Z,6.90
2018-09-30T15:48:12.551Z,6.77
2018-09-30T15:50:40.728Z,9.20
2018-09-30T15:53:08.958Z,9.10
2018-09-30T15:55:37.195Z,18.43
2018-09-30T15:58:05.477Z,7.53
2018-09-30T16:00:33.751Z,6.90
2018-09-30T16:03:01.969Z,5.93
2018-09-30T16:05:30.193Z,7.90
2018-09-30T16:07:58.510Z,25.10
2018-09-30T16:10:26.758Z,47.67
2018-09-30T16:12:55.012Z,22.37
2018-09-30T16:15:23.277Z,15.67
2018-09-30T16:17:51.496Z,12.00
2018-09-30T16:20:19.710Z,10.63
2018-09-30T16:22:47.917Z,10.20
2018-09-30T16:25:16.150Z,10.37
2018-09-30T16:27:44.443Z,12.83
2018-09-30T16:30:37.068Z,14.07
2018-09-30T16:34:51.533Z,11.97
2018-09-30T16:37:29.268Z,14.77
2018-09-30T16:39:59.765Z,19.77
2018-09-30T16:42:33.245Z,23.23
2018-09-30T16:45:02.657Z,25.73
2018-09-30T16:47:31.094Z,25.57
2018-09-30T16:50:03.868Z,24.83
2018-09-30T16:52:34.350Z,23.97
2018-09-30T16:58:11.215Z,20.40
2018-09-30T17:12:44.847Z,20.87
2018-09-30T17:18:05.578Z,33.57
2018-09-30T17:20:36.632Z,28.97
2018-09-30T17:23:13.719Z,27.60
2018-09-30T17:28:37.330Z,33.10
2018-09-30T17:31:07.694Z,40.50
2018-09-30T17:33:39.851Z,49.17
2018-09-30T17:38:58.591Z,35.10
2018-09-30T17:41:38.411Z,26.73
2018-09-30T17:44:07.219Z,19.43
2018-09-30T17:49:26.145Z,16.87
2018-09-30T17:52:18.055Z,17.77
2018-09-30T17:55:20.772Z,28.60
2018-09-30T17:58:05.711Z,22.57
2018-09-30T18:00:40.156Z,23.80
2018-09-30T18:03:09.893Z,31.93
2018-09-30T18:05:39.738Z,41.87
2018-09-30T18:08:16.624Z,46.83
2018-09-30T18:10:46.796Z,49.67
2018-09-30T18:15:49.331Z,58.40
2018-09-30T18:18:19.334Z,105.67
2018-09-30T18:20:52.534Z,136.80
2018-09-30T18:23:25.800Z,122.20
2018-09-30T18:25:57.526Z,118.23
2018-09-30T18:28:45.267Z,135.73
2018-09-30T18:37:50.884Z,53.00
2018-09-30T18:44:08.884Z,46.93
2018-09-30T18:47:07.703Z,81.67
2018-09-30T18:52:51.884Z,131.53
2018-09-30T18:55:29.118Z,70.83
2018-09-30T18:58:09.501Z,147.43
2018-09-30T19:00:48.584Z,178.47
2018-09-30T19:06:00.508Z,110.77
2018-09-30T19:19:50.081Z,120.83
2018-09-30T19:27:28.550Z,85.80
2018-09-30T19:30:02.804Z,80.80
2018-09-30T19:32:46.089Z,116.20
2018-09-30T19:37:50.458Z,68.10
2018-09-30T19:40:23.509Z,67.00
2018-09-30T19:42:52.269Z,69.73
2018-09-30T19:45:22.997Z,63.07
2018-09-30T19:47:53.802Z,26.40
2018-09-30T19:50:27.025Z,40.07
2018-09-30T19:53:06.548Z,43.07
2018-09-30T19:55:46.327Z,50.57
2018-09-30T19:58:18.366Z,38.70
2018-09-30T20:00:46.861Z,52.63
2018-09-30T20:03:16.357Z,27.97
2018-09-30T20:06:01.100Z,36.40
2018-09-30T20:08:29.585Z,27.90
2018-09-30T20:10:58.428Z,38.40
2018-09-30T20:13:28.826Z,21.80
2018-09-30T20:17:00.694Z,24.40
2018-09-30T20:19:41.274Z,59.53
2018-09-30T20:22:23.260Z,67.83
2018-09-30T20:24:56.801Z,44.53
2018-09-30T20:30:18.764Z,47.50
2018-09-30T20:32:47.085Z,50.33
2018-09-30T20:35:15.301Z,21.23
2018-09-30T20:37:43.521Z,51.97
2018-09-30T20:40:11.754Z,37.33
2018-09-30T20:42:39.991Z,29.30
2018-09-30T20:45:08.229Z,28.00
2018-09-30T20:47:36.463Z,23.63
2018-09-30T20:50:04.701Z,19.77
2018-09-30T20:52:32.927Z,20.97
2018-09-30T20:55:01.137Z,20.53
2018-09-30T20:57:29.389Z,15.87
2018-09-30T20:59:57.735Z,23.07
2018-09-30T21:02:25.937Z,23.53
2018-09-30T21:04:54.236Z,22.27
2018-09-30T21:07:22.402Z,43.13
2018-09-30T21:09:50.620Z,33.03
2018-09-30T21:12:18.840Z,29.63
2018-09-30T21:14:47.069Z,49.00
2018-09-30T21:17:15.343Z,42.77
2018-09-30T21:19:43.547Z,63.00
2018-09-30T21:22:11.789Z,54.57
2018-09-30T21:24:39.973Z,46.00
2018-09-30T21:27:08.232Z,76.37
2018-09-30T21:29:36.440Z,75.83
2018-09-30T21:32:04.641Z,89.13
2018-09-30T21:34:32.845Z,82.67
2018-09-30T21:37:01.064Z,51.57
2018-09-30T21:39:29.308Z,30.70
2018-09-30T21:41:57.551Z,35.10
2018-09-30T21:44:25.793Z,26.50
2018-09-30T21:46:53.996Z,31.63
2018-09-30T21:49:22.197Z,26.80
2018-09-30T21:51:50.467Z,29.00
2018-09-30T21:54:18.680Z,15.83
2018-09-30T21:56:46.909Z,17.80
2018-09-30T21:59:15.097Z,21.10
2018-09-30T22:01:43.324Z,79.07
2018-09-30T22:04:11.594Z,39.60
2018-09-30T22:06:39.801Z,44.00
2018-09-30T22:09:08.061Z,122.87
2018-09-30T22:11:36.263Z,100.63
2018-09-30T22:14:04.490Z,73.83
2018-09-30T22:16:32.743Z,191.70
2018-09-30T22:19:00.973Z,135.87
2018-09-30T22:21:29.184Z,95.47
2018-09-30T22:23:57.407Z,76.03
2018-09-30T22:26:25.604Z,68.30
2018-09-30T22:28:53.827Z,70.07
2018-09-30T22:31:22.064Z,67.57
2018-09-30T22:33:50.252Z,60.70
2018-09-30T22:36:18.457Z,50.77
2018-09-30T22:38:46.704Z,49.37
2018-09-30T22:41:14.933Z,41.90
2018-09-30T22:43:43.148Z,44.17
2018-09-30T22:46:11.387Z,36.30
2018-09-30T22:48:39.592Z,32.73
2018-09-30T22:51:07.796Z,32.93
2018-09-30T22:53:36.356Z,30.37
2018-09-30T22:56:04.573Z,30.07
2018-09-30T22:58:32.801Z,33.80
2018-09-30T23:01:01.006Z,32.87
2018-09-30T23:03:29.236Z,34.10
2018-09-30T23:05:57.430Z,33.40
2018-09-30T23:08:25.656Z,28.10
2018-09-30T23:10:53.873Z,18.87
2018-09-30T23:13:22.081Z,18.20
2018-09-30T23:15:50.353Z,26.83
2018-09-30T23:18:18.564Z,24.90
2018-09-30T23:20:46.765Z,22.07
2018-09-30T23:23:14.981Z,18.83
2018-09-30T23:25:43.164Z,19.63
2018-09-30T23:28:17.248Z,19.07
2018-09-30T23:30:45.462Z,18.63
2018-09-30T23:33:13.676Z,17.63
2018-09-30T23:35:41.913Z,17.70
2018-09-30T23:38:10.179Z,24.77
2018-09-30T23:40:38.377Z,28.50
2018-09-30T23:43:06.664Z,22.03
2018-09-30T23:45:34.859Z,37.70
2018-09-30T23:48:03.104Z,41.20
2018-09-30T23:50:31.302Z,20.10
2018-09-30T23:52:59.472Z,16.37
2018-09-30T23:55:28.545Z,18.17
2018-09-30T23:58:02.357Z,42.63
